createdAt,value
2018-01-19T00:01:54.024Z,7.68
2018-01-19T00:04:21.876Z,7.28
2018-01-19T00:06:49.560Z,7.80
2018-01-19T00:09:16.485Z,7.90
2018-01-19T00:11:43.400Z,6.75
2018-01-19T00:14:11.072Z,6.15
2018-01-19T00:16:38.769Z,6.70
2018-01-19T00:19:05.682Z,6.65
2018-01-19T00:21:32.599Z,8.20
2018-01-19T00:23:59.495Z,6.30
2018-01-19T00:26:26.414Z,7.15
2018-01-19T00:28:54.080Z,7.78
2018-01-19T00:31:21.781Z,8.90
2018-01-19T00:33:48.696Z,7.00
2018-01-19T00:36:15.632Z,8.45
2018-01-19T00:38:43.330Z,6.28
2018-01-19T00:41:10.256Z,7.57
2018-01-19T00:43:38.008Z,6.22
2018-01-19T00:46:04.927Z,7.97
2018-01-19T00:48:31.836Z,6.00
2018-01-19T00:50:58.760Z,7.07
2018-01-19T00:53:25.666Z,7.60
2018-01-19T00:55:52.591Z,6.72
2018-01-19T00:58:20.413Z,5.03
2018-01-19T01:00:47.335Z,6.10
2018-01-19T01:03:14.240Z,5.95
2018-01-19T01:05:41.168Z,4.75
2018-01-19T01:08:08.068Z,4.20
2018-01-19T01:10:34.993Z,4.93
2018-01-19T01:13:01.898Z,4.55
2018-01-19T01:15:29.737Z,5.60
2018-01-19T01:17:57.407Z,4.53
2018-01-19T01:20:25.087Z,4.53
2018-01-19T01:22:51.997Z,5.85
2018-01-19T01:25:18.896Z,4.55
2018-01-19T01:27:46.587Z,3.50
2018-01-19T01:30:13.490Z,3.30
2018-01-19T01:32:41.177Z,4.18
2018-01-19T01:35:08.080Z,3.95
2018-01-19T01:37:34.995Z,3.80
2018-01-19T01:40:01.892Z,3.70
2018-01-19T01:42:29.577Z,2.90
2018-01-19T01:44:56.480Z,3.22
2018-01-19T01:47:23.395Z,4.40
2018-01-19T01:49:50.308Z,4.00
2018-01-19T01:52:17.236Z,4.37
2018-01-19T01:54:44.912Z,4.05
2018-01-19T01:57:11.828Z,4.22
2018-01-19T01:59:38.723Z,4.60
2018-01-19T02:02:05.638Z,3.80
2018-01-19T02:04:32.543Z,5.18
2018-01-19T02:06:59.465Z,5.18
2018-01-19T02:09:26.370Z,4.32
2018-01-19T02:11:53.297Z,4.80
2018-01-19T02:14:20.967Z,5.18
2018-01-19T02:16:48.648Z,4.93
2018-01-19T02:19:15.548Z,5.22
2018-01-19T02:21:42.468Z,4.50
2018-01-19T02:24:09.359Z,6.18
2018-01-19T02:26:37.041Z,5.75
2018-01-19T02:29:03.950Z,4.62
2018-01-19T02:31:30.868Z,5.18
2018-01-19T02:33:57.775Z,5.43
2018-01-19T02:36:24.690Z,4.15
2018-01-19T02:38:52.352Z,4.80
2018-01-19T02:41:20.032Z,4.30
2018-01-19T02:43:46.941Z,4.53
2018-01-19T02:46:13.853Z,4.78
2018-01-19T02:48:40.777Z,5.30
2018-01-19T02:51:07.689Z,4.07
2018-01-19T02:53:35.357Z,4.10
2018-01-19T02:56:03.035Z,3.75
2018-01-19T02:58:29.932Z,3.30
2018-01-19T03:00:56.864Z,4.75
2018-01-19T03:03:23.774Z,3.60
2018-01-19T03:05:51.583Z,4.03
2018-01-19T03:08:18.495Z,4.30
2018-01-19T03:10:45.411Z,3.62
2018-01-19T03:13:13.082Z,4.12
2018-01-19T03:15:39.995Z,4.32
2018-01-19T03:18:06.895Z,4.40
2018-01-19T03:20:33.803Z,5.68
2018-01-19T03:23:00.708Z,4.50
2018-01-19T03:25:27.624Z,4.60
2018-01-19T03:27:54.520Z,4.95
2018-01-19T03:30:21.450Z,5.07
2018-01-19T03:32:48.368Z,5.82
2018-01-19T03:35:15.284Z,5.40
2018-01-19T03:37:42.205Z,5.15
2018-01-19T03:40:09.893Z,5.03
2018-01-19T03:42:36.801Z,5.20
2018-01-19T03:45:03.719Z,4.55
2018-01-19T03:47:30.620Z,3.87
2018-01-19T03:49:57.555Z,3.75
2018-01-19T03:52:24.461Z,4.18
2018-01-19T03:54:51.363Z,4.07
2018-01-19T03:57:18.284Z,3.75
2018-01-19T03:59:45.209Z,3.65
2018-01-19T04:02:12.879Z,3.80
2018-01-19T04:04:40.565Z,4.32
2018-01-19T04:07:07.468Z,3.83
2018-01-19T04:09:34.385Z,3.50
2018-01-19T04:12:01.297Z,3.92
2018-01-19T04:14:28.228Z,4.12
2018-01-19T04:16:55.146Z,3.90
2018-01-19T04:19:22.052Z,4.65
2018-01-19T04:21:48.984Z,4.45
2018-01-19T04:24:15.892Z,4.95
2018-01-19T04:26:43.572Z,5.75
2018-01-19T04:29:10.476Z,6.15
2018-01-19T04:31:37.396Z,5.60
2018-01-19T04:34:04.316Z,6.22
2018-01-19T04:36:31.239Z,7.45
2018-01-19T04:38:58.914Z,6.60
2018-01-19T04:41:25.828Z,6.75
2018-01-19T04:43:53.496Z,6.95
2018-01-19T04:46:21.191Z,8.80
2018-01-19T04:48:48.093Z,7.87
2018-01-19T04:51:15.016Z,7.40
2018-01-19T04:53:41.929Z,9.45
2018-01-19T04:56:08.857Z,8.43
2018-01-19T04:58:35.781Z,10.38
2018-01-19T05:01:03.472Z,10.40
2018-01-19T05:03:30.379Z,10.07
2018-01-19T05:05:58.085Z,12.10
2018-01-19T05:08:24.984Z,12.15
2018-01-19T05:10:51.913Z,13.93
2018-01-19T05:13:18.825Z,13.77
2018-01-19T05:15:45.748Z,11.40
2018-01-19T05:18:12.656Z,12.20
2018-01-19T05:20:39.584Z,13.00
2018-01-19T05:23:06.488Z,14.13
2018-01-19T05:25:33.407Z,15.68
2018-01-19T05:28:01.082Z,15.60
2018-01-19T05:30:28.006Z,15.07
2018-01-19T05:32:55.683Z,14.10
2018-01-19T05:35:22.597Z,16.08
2018-01-19T05:37:49.495Z,15.20
2018-01-19T05:40:16.415Z,18.05
2018-01-19T05:42:43.320Z,17.02
2018-01-19T05:45:10.258Z,17.30
2018-01-19T05:47:37.168Z,16.98
2018-01-19T05:50:04.113Z,17.00
2018-01-19T05:52:31.022Z,21.67
2018-01-19T05:54:58.724Z,17.33
2018-01-19T05:57:25.649Z,17.85
2018-01-19T05:59:52.572Z,20.95
2018-01-19T06:02:20.247Z,17.55
2018-01-19T06:04:47.167Z,20.80
2018-01-19T06:07:14.079Z,23.67
2018-01-19T06:09:40.999Z,23.80
2018-01-19T06:12:07.912Z,23.80
2018-01-19T06:14:34.835Z,18.98
2018-01-19T06:17:01.737Z,18.87
2018-01-19T06:19:28.659Z,19.12
2018-01-19T06:21:55.567Z,16.35
2018-01-19T06:24:22.490Z,18.02
2018-01-19T06:26:49.394Z,25.85
2018-01-19T06:29:16.324Z,20.55
2018-01-19T06:31:43.996Z,19.65
2018-01-19T06:34:10.947Z,18.62
2018-01-19T06:36:37.873Z,16.37
2018-01-19T06:39:05.564Z,18.10
2018-01-19T06:41:32.480Z,16.50
2018-01-19T06:44:00.173Z,18.20
2018-01-19T06:46:27.085Z,18.48
2018-01-19T06:48:54.781Z,16.45
2018-01-19T06:51:21.694Z,15.40
2018-01-19T06:53:48.620Z,18.70
2018-01-19T06:56:16.292Z,19.90
2018-01-19T06:58:43.987Z,21.48
2018-01-19T07:01:10.903Z,17.92
2018-01-19T07:03:38.598Z,20.62
2018-01-19T07:06:05.505Z,18.00
2018-01-19T07:08:32.474Z,20.75
2018-01-19T07:10:59.397Z,18.55
2018-01-19T07:13:27.088Z,21.33
2018-01-19T07:15:53.987Z,19.25
2018-01-19T07:18:20.907Z,16.85
2018-01-19T07:20:47.820Z,18.08
2018-01-19T07:23:14.722Z,21.08
2018-01-19T07:25:41.625Z,18.60
2018-01-19T07:28:08.545Z,18.70
2018-01-19T07:30:35.456Z,18.50
2018-01-19T07:33:03.152Z,20.88
2018-01-19T07:35:30.070Z,16.95
2018-01-19T07:37:57.763Z,16.48
2018-01-19T07:40:24.664Z,18.90
2018-01-19T07:42:51.589Z,14.85
2018-01-19T07:45:18.495Z,15.73
2018-01-19T07:47:45.457Z,15.20
2018-01-19T07:50:12.351Z,17.55
2018-01-19T07:52:40.041Z,17.00
2018-01-19T07:55:06.960Z,15.13
2018-01-19T07:57:34.659Z,14.98
2018-01-19T08:00:01.563Z,15.82
2018-01-19T08:02:29.228Z,16.70
2018-01-19T08:04:56.917Z,15.63
2018-01-19T08:07:23.828Z,13.52
2018-01-19T08:09:51.529Z,14.55
2018-01-19T08:12:18.458Z,16.02
2018-01-19T08:14:45.392Z,14.38
2018-01-19T08:17:13.085Z,14.57
2018-01-19T08:19:40.050Z,14.73
2018-01-19T08:22:06.947Z,15.18
2018-01-19T08:24:33.871Z,14.25
2018-01-19T08:27:00.797Z,16.15
2018-01-19T08:29:27.715Z,17.12
2018-01-19T08:31:54.618Z,16.27
2018-01-19T08:34:22.307Z,15.65
2018-01-19T08:36:49.237Z,13.23
2018-01-19T08:39:16.155Z,15.73
2018-01-19T08:41:43.830Z,14.38
2018-01-19T08:44:11.520Z,14.00
2018-01-19T08:46:38.423Z,12.43
2018-01-19T08:49:05.378Z,14.77
2018-01-19T08:51:32.258Z,13.05
2018-01-19T08:53:59.190Z,14.52
2018-01-19T08:56:26.088Z,14.38
2018-01-19T08:58:53.004Z,12.20
2018-01-19T09:01:19.927Z,16.35
2018-01-19T09:03:46.856Z,15.88
2018-01-19T09:06:13.769Z,14.52
2018-01-19T09:08:40.697Z,14.02
2018-01-19T09:11:07.608Z,16.48
2018-01-19T09:13:34.529Z,11.57
2018-01-19T09:16:01.442Z,13.60
2018-01-19T09:18:28.365Z,14.45
2018-01-19T09:20:55.280Z,12.50
2018-01-19T09:23:22.212Z,11.32
2018-01-19T09:25:49.123Z,13.52
2018-01-19T09:28:16.048Z,12.60
2018-01-19T09:30:42.947Z,14.13
2018-01-19T09:33:09.884Z,15.25
2018-01-19T09:35:36.786Z,13.30
2018-01-19T09:38:03.699Z,13.68
2018-01-19T09:40:30.620Z,12.50
2018-01-19T09:42:57.546Z,14.02
2018-01-19T09:45:25.232Z,12.20
2018-01-19T09:47:52.204Z,11.85
2018-01-19T09:50:19.119Z,11.20
2018-01-19T09:52:46.037Z,11.48
2018-01-19T09:55:12.955Z,10.98
2018-01-19T09:57:39.897Z,12.20
2018-01-19T10:00:07.713Z,11.95
2018-01-19T10:02:35.396Z,11.73
2018-01-19T10:05:02.308Z,9.60
2018-01-19T10:07:29.232Z,9.75
2018-01-19T10:09:56.135Z,9.85
2018-01-19T10:12:23.056Z,10.55
2018-01-19T10:14:49.960Z,11.82
2018-01-19T10:17:18.800Z,9.98
2018-01-19T10:19:45.704Z,10.10
2018-01-19T10:22:12.640Z,9.55
2018-01-19T10:24:39.568Z,9.07
2018-01-19T10:27:06.488Z,9.45
2018-01-19T10:29:33.407Z,10.10
2018-01-19T10:32:01.089Z,8.68
2018-01-19T10:34:27.993Z,8.15
2018-01-19T10:36:56.816Z,8.98
2018-01-19T10:39:24.478Z,9.88
2018-01-19T10:41:52.158Z,8.40
2018-01-19T10:44:19.055Z,9.25
2018-01-19T10:46:46.000Z,8.45
2018-01-19T10:49:12.903Z,7.80
2018-01-19T10:51:40.745Z,6.43
2018-01-19T10:54:07.653Z,8.55
2018-01-19T10:56:34.584Z,7.30
2018-01-19T10:59:01.512Z,9.57
2018-01-19T11:01:28.446Z,11.30
2018-01-19T11:03:57.000Z,9.02
2018-01-19T11:06:23.920Z,8.95
2018-01-19T11:08:51.600Z,9.07
2018-01-19T11:11:19.282Z,9.00
2018-01-19T11:13:46.174Z,8.32
2018-01-19T11:16:13.087Z,9.88
2018-01-19T11:18:39.987Z,8.77
2018-01-19T11:21:12.910Z,8.70
2018-01-19T11:23:39.808Z,9.20
2018-01-19T11:26:07.503Z,9.55
2018-01-19T11:28:34.420Z,9.15
2018-01-19T11:31:02.100Z,9.48
2018-01-19T11:33:28.995Z,9.10
2018-01-19T11:35:55.961Z,7.75
2018-01-19T11:38:22.876Z,8.27
2018-01-19T11:40:49.803Z,8.57
2018-01-19T11:43:16.733Z,8.02
2018-01-19T11:45:43.661Z,7.03
2018-01-19T11:48:10.559Z,8.73
2018-01-19T11:50:38.399Z,9.07
2018-01-19T11:53:05.305Z,8.48
2018-01-19T11:55:36.561Z,8.93
2018-01-19T11:58:03.460Z,8.43
2018-01-19T12:00:30.405Z,9.88
2018-01-19T12:02:57.352Z,9.38
2018-01-19T12:05:24.296Z,9.45
2018-01-19T12:07:51.999Z,8.63
2018-01-19T12:10:18.900Z,8.23
2018-01-19T12:12:45.847Z,8.68
2018-01-19T12:15:12.789Z,8.43
2018-01-19T12:17:39.700Z,10.27
2018-01-19T12:20:06.674Z,10.32
2018-01-19T12:22:37.172Z,10.73
2018-01-19T12:25:04.077Z,8.93
2018-01-19T12:27:31.014Z,10.85
2018-01-19T12:29:57.940Z,12.43
2018-01-19T12:32:24.840Z,13.65
2018-01-19T12:34:52.528Z,14.15
2018-01-19T12:37:19.444Z,14.82
2018-01-19T12:39:46.369Z,13.73
2018-01-19T12:42:13.276Z,12.65
2018-01-19T12:44:40.205Z,14.82
2018-01-19T12:47:07.114Z,17.08
2018-01-19T12:49:34.044Z,21.60
2018-01-19T12:52:00.973Z,18.15
2018-01-19T12:54:27.912Z,17.02
2018-01-19T12:56:54.840Z,17.25
2018-01-19T12:59:21.767Z,19.42
2018-01-19T13:01:48.688Z,21.55
2018-01-19T13:04:15.615Z,21.10
2018-01-19T13:06:42.521Z,19.23
2018-01-19T13:09:09.449Z,17.92
2018-01-19T13:11:36.352Z,18.02
2018-01-19T13:14:03.276Z,18.70
2018-01-19T13:16:30.192Z,20.17
2018-01-19T13:18:57.111Z,18.80
2018-01-19T13:21:24.026Z,18.45
2018-01-19T13:23:50.968Z,23.17
2018-01-19T13:26:17.875Z,23.15
2018-01-19T13:28:44.791Z,20.33
2018-01-19T13:31:11.697Z,20.23
2018-01-19T13:33:38.628Z,19.33
2018-01-19T13:36:05.546Z,19.60
2018-01-19T13:38:32.496Z,26.58
2018-01-19T13:40:59.387Z,24.30
2018-01-19T13:43:27.071Z,26.23
2018-01-19T13:45:53.979Z,23.75
2018-01-19T13:48:20.935Z,23.12
2018-01-19T13:50:48.628Z,22.37
2018-01-19T13:53:15.551Z,21.80
2018-01-19T13:55:42.472Z,22.25
2018-01-19T13:58:09.408Z,21.25
2018-01-19T14:00:36.326Z,21.95
2018-01-19T14:03:03.242Z,22.67
2018-01-19T14:05:30.155Z,20.62
2018-01-19T14:07:57.079Z,24.90
2018-01-19T14:10:23.985Z,20.80
2018-01-19T14:12:50.910Z,23.10
2018-01-19T14:15:17.831Z,23.83
2018-01-19T14:17:44.785Z,25.98
2018-01-19T14:20:12.460Z,25.35
2018-01-19T14:22:40.150Z,32.20
2018-01-19T14:25:07.052Z,27.52
2018-01-19T14:27:34.000Z,26.50
2018-01-19T14:30:01.676Z,28.17
2018-01-19T14:32:30.267Z,27.25
2018-01-19T14:34:57.195Z,29.92
2018-01-19T14:37:24.860Z,29.05
2018-01-19T14:39:52.529Z,28.48
2018-01-19T14:42:19.471Z,35.13
2018-01-19T14:44:47.198Z,29.37
2018-01-19T14:47:14.108Z,26.30
2018-01-19T14:49:41.012Z,27.00
2018-01-19T14:52:07.949Z,27.92
2018-01-19T14:54:35.639Z,26.23
2018-01-19T14:57:02.565Z,24.12
2018-01-19T14:59:30.241Z,23.90
2018-01-19T15:01:57.166Z,21.85
2018-01-19T15:04:24.850Z,22.52
2018-01-19T15:06:51.789Z,23.40
2018-01-19T15:09:18.706Z,24.10
2018-01-19T15:11:46.397Z,20.23
2018-01-19T15:14:13.313Z,23.95
2018-01-19T15:16:40.254Z,21.55
2018-01-19T15:19:07.183Z,20.80
2018-01-19T15:21:34.114Z,22.95
2018-01-19T15:24:01.014Z,22.13
2018-01-19T15:26:27.964Z,22.87
2018-01-19T15:28:55.631Z,21.10
2018-01-19T15:31:22.571Z,23.42
2018-01-19T15:33:49.479Z,22.70
2018-01-19T15:36:16.412Z,21.77
2018-01-19T15:38:43.328Z,23.27
2018-01-19T15:41:10.280Z,21.87
2018-01-19T15:43:37.192Z,24.98
2018-01-19T15:46:04.130Z,22.65
2018-01-19T15:48:31.832Z,20.70
2018-01-19T15:50:58.795Z,23.20
2018-01-19T15:53:26.622Z,21.75
2018-01-19T15:55:53.545Z,22.17
2018-01-19T15:58:20.493Z,25.00
2018-01-19T16:00:48.223Z,21.85
2018-01-19T16:03:15.172Z,21.10
2018-01-19T16:05:42.099Z,19.77
2018-01-19T16:08:09.048Z,21.83
2018-01-19T16:10:35.995Z,22.85
2018-01-19T16:13:02.905Z,23.55
2018-01-19T16:15:29.837Z,21.50
2018-01-19T16:17:56.745Z,20.08
2018-01-19T16:20:23.697Z,21.12
2018-01-19T16:22:51.372Z,19.15
2018-01-19T16:25:19.064Z,22.20
2018-01-19T16:27:46.945Z,18.90
2018-01-19T16:30:13.929Z,19.83
2018-01-19T16:32:40.840Z,21.23
2018-01-19T16:35:07.807Z,21.90
2018-01-19T16:37:36.641Z,18.37
2018-01-19T16:40:03.604Z,19.73
2018-01-19T16:42:37.400Z,20.50
2018-01-19T16:45:04.368Z,20.17
2018-01-19T16:47:31.289Z,20.92
2018-01-19T16:49:58.224Z,21.00
2018-01-19T16:52:25.160Z,24.23
2018-01-19T16:54:52.170Z,23.15
2018-01-19T16:57:19.170Z,25.45
2018-01-19T16:59:46.120Z,21.73
2018-01-19T17:02:13.068Z,22.27
2018-01-19T17:04:40.046Z,18.77
2018-01-19T17:07:07.006Z,20.50
2018-01-19T17:09:33.968Z,21.05
2018-01-19T17:12:01.654Z,22.40
2018-01-19T17:14:28.577Z,21.58
2018-01-19T17:16:56.264Z,21.12
2018-01-19T17:19:23.183Z,22.27
2018-01-19T17:21:50.884Z,22.17
2018-01-19T17:24:19.748Z,23.27
2018-01-19T17:26:46.668Z,19.87
2018-01-19T17:29:14.378Z,21.80
2018-01-19T17:31:41.335Z,22.13
2018-01-19T17:34:08.280Z,22.33
2018-01-19T17:36:35.203Z,20.83
2018-01-19T17:39:02.173Z,22.02
2018-01-19T17:41:29.899Z,24.20
2018-01-19T17:43:56.833Z,22.40
2018-01-19T17:46:23.748Z,20.52
2018-01-19T17:48:51.462Z,23.15
2018-01-19T17:51:22.576Z,21.48
2018-01-19T17:53:50.283Z,21.98
2018-01-19T17:56:17.240Z,21.02
2018-01-19T17:58:44.235Z,22.05
2018-01-19T18:01:11.193Z,21.73
2018-01-19T18:03:38.156Z,20.45
2018-01-19T18:06:05.064Z,21.05
2018-01-19T18:08:32.774Z,18.33
2018-01-19T18:11:00.630Z,21.20
2018-01-19T18:13:27.584Z,19.40
2018-01-19T18:15:54.511Z,19.75
2018-01-19T18:18:21.435Z,18.37
2018-01-19T18:20:48.345Z,18.60
2018-01-19T18:23:15.269Z,17.12
2018-01-19T18:25:42.205Z,19.62
2018-01-19T18:28:09.136Z,21.62
2018-01-19T18:30:36.065Z,12.95
2018-01-19T18:33:02.997Z,16.70
2018-01-19T18:35:29.917Z,11.80
2018-01-19T18:37:56.888Z,15.32
2018-01-19T18:40:23.836Z,14.43
2018-01-19T18:42:50.762Z,13.82
2018-01-19T18:45:18.452Z,16.67
2018-01-19T18:47:45.397Z,15.95
2018-01-19T18:50:12.319Z,13.50
2018-01-19T18:52:39.254Z,15.43
2018-01-19T18:55:06.925Z,15.57
2018-01-19T18:57:34.612Z,14.52
2018-01-19T19:00:01.771Z,15.38
2018-01-19T19:02:28.695Z,15.05
2018-01-19T19:04:55.607Z,14.85
2018-01-19T19:07:22.544Z,14.82
2018-01-19T19:09:49.455Z,13.68
2018-01-19T19:12:16.379Z,14.13
2018-01-19T19:14:43.300Z,14.82
2018-01-19T19:17:11.003Z,15.88
2018-01-19T19:19:37.944Z,15.23
2018-01-19T19:22:04.860Z,12.75
2018-01-19T19:24:31.792Z,13.40
2018-01-19T19:26:58.744Z,15.73
2018-01-19T19:29:25.671Z,14.95
2018-01-19T19:31:53.397Z,12.60
2018-01-19T19:34:20.303Z,12.37
2018-01-19T19:36:47.220Z,13.88
2018-01-19T19:39:14.120Z,14.30
2018-01-19T19:41:41.049Z,14.25
2018-01-19T19:44:07.947Z,14.60
2018-01-19T19:46:35.772Z,13.45
2018-01-19T19:49:02.672Z,13.70
2018-01-19T19:51:30.370Z,14.50
2018-01-19T19:53:57.283Z,13.93
2018-01-19T19:56:24.199Z,14.15
2018-01-19T19:58:51.944Z,13.85
2018-01-19T20:01:18.870Z,15.00
2018-01-19T20:03:45.796Z,14.57
2018-01-19T20:06:12.715Z,13.98
2018-01-19T20:08:40.384Z,15.43
2018-01-19T20:11:08.084Z,13.70
2018-01-19T20:13:34.999Z,14.07
2018-01-19T20:16:01.916Z,13.65
2018-01-19T20:18:28.835Z,13.70
2018-01-19T20:20:55.753Z,13.65
2018-01-19T20:23:22.713Z,15.13
2018-01-19T20:25:49.651Z,14.30
2018-01-19T20:28:16.598Z,14.25
2018-01-19T20:30:43.520Z,13.77
2018-01-19T20:33:10.441Z,13.45
2018-01-19T20:35:37.343Z,14.55
2018-01-19T20:38:04.279Z,12.82
2018-01-19T20:40:31.198Z,16.02
2018-01-19T20:42:59.053Z,14.60
2018-01-19T20:45:25.967Z,12.70
2018-01-19T20:47:52.893Z,12.63
2018-01-19T20:50:19.819Z,13.57
2018-01-19T20:52:46.734Z,11.25
2018-01-19T20:55:13.677Z,10.75
2018-01-19T20:57:45.689Z,11.98
2018-01-19T21:00:12.609Z,10.65
2018-01-19T21:02:39.556Z,10.13
2018-01-19T21:05:06.487Z,9.73
2018-01-19T21:07:33.412Z,9.07
2018-01-19T21:10:00.329Z,9.50
2018-01-19T21:12:27.288Z,7.37
2018-01-19T21:14:54.967Z,8.52
2018-01-19T21:17:21.913Z,8.40
2018-01-19T21:19:48.863Z,6.00
2018-01-19T21:22:15.813Z,8.95
2018-01-19T21:24:42.725Z,9.13
2018-01-19T21:27:11.565Z,10.90
2018-01-19T21:29:38.505Z,9.60
2018-01-19T21:32:05.436Z,11.02
2018-01-19T21:34:32.345Z,9.88
2018-01-19T21:36:59.285Z,10.82
2018-01-19T21:39:26.191Z,10.88
2018-01-19T21:41:53.111Z,11.30
2018-01-19T21:44:20.028Z,10.43
2018-01-19T21:46:47.724Z,12.13
2018-01-19T21:49:14.646Z,10.65
2018-01-19T21:51:41.587Z,12.90
2018-01-19T21:54:09.265Z,15.90
2018-01-19T21:56:36.179Z,15.90
2018-01-19T21:59:03.084Z,14.50
2018-01-19T22:01:30.009Z,14.45
2018-01-19T22:03:56.919Z,14.98
2018-01-19T22:06:24.608Z,20.27
2018-01-19T22:08:51.515Z,18.08
2018-01-19T22:11:18.457Z,17.55
2018-01-19T22:13:45.360Z,17.00
2018-01-19T22:16:12.285Z,15.63
2018-01-19T22:18:39.200Z,18.05
2018-01-19T22:21:06.890Z,17.35
2018-01-19T22:23:33.800Z,18.40
2018-01-19T22:26:00.717Z,18.20
2018-01-19T22:28:27.637Z,18.15
2018-01-19T22:30:54.550Z,16.45
2018-01-19T22:33:22.386Z,17.17
2018-01-19T22:35:49.311Z,18.77
2018-01-19T22:38:16.226Z,18.52
2018-01-19T22:40:43.161Z,21.73
2018-01-19T22:43:10.072Z,18.37
2018-01-19T22:45:40.820Z,19.98
2018-01-19T22:48:07.728Z,17.80
2018-01-19T22:50:34.653Z,17.45
2018-01-19T22:53:01.577Z,19.92
2018-01-19T22:55:28.489Z,19.83
2018-01-19T22:57:58.117Z,17.73
2018-01-19T23:00:25.040Z,19.77
2018-01-19T23:02:52.723Z,18.08
2018-01-19T23:05:19.639Z,18.52
2018-01-19T23:07:47.334Z,17.20
2018-01-19T23:10:14.260Z,17.95
2018-01-19T23:12:41.221Z,17.37
2018-01-19T23:15:08.156Z,16.42
2018-01-19T23:17:35.080Z,17.80
2018-01-19T23:20:02.751Z,17.20
2018-01-19T23:22:30.595Z,16.85
2018-01-19T23:24:57.522Z,15.18
2018-01-19T23:27:24.466Z,15.35
2018-01-19T23:29:52.170Z,16.85
2018-01-19T23:32:19.098Z,14.15
2018-01-19T23:34:46.003Z,15.38
2018-01-19T23:37:13.860Z,15.13
2018-01-19T23:39:40.780Z,15.43
2018-01-19T23:42:08.475Z,15.45
2018-01-19T23:44:35.389Z,16.33
2018-01-19T23:47:02.338Z,19.42
2018-01-19T23:49:29.256Z,18.15
2018-01-19T23:51:56.185Z,18.25
2018-01-19T23:54:23.094Z,17.17
2018-01-19T23:56:50.804Z,16.80
2018-01-19T23:59:17.719Z,19.25
